Time;durP1;ratioP1;P1;durP2;ratioP2;P2;SDS_P1;SDS_P2;PMS_P1;PMS_P2;Temp;Humidity;BMP_temperature;BMP_pressure;BME280_temperature;BME280_humidity;BME280_pressure;Samples;Min_cycle;Max_cycle;Signal;HPM_P1;HPM_P2
2021/04/04 00:00:59;;;;;;;30.70;13.08;;;;;;;3.09;70.18;100939.64;2217925;80;27650;-63
2021/04/04 00:04:01;;;;;;;23.22;11.83;;;;;;;3.09;70.27;100938.31;2217849;80;28803;-63
2021/04/04 00:07:03;;;;;;;28.57;11.10;;;;;;;3.09;70.26;100939.64;2217903;80;31204;-62
2021/04/04 00:10:09;;;;;;;27.70;11.35;;;;;;;3.08;70.28;100940.09;2217852;80;33121;-64
2021/04/04 00:13:10;;;;;;;;;;;;;;;3.11;70.30;100945.80;2220588;80;29140;-64
2021/04/04 00:16:13;;;;;;;27.65;13.35;;;;;;;3.14;70.32;100951.08;2217978;80;27745;-63
2021/04/04 00:19:16;;;;;;;24.07;13.30;;;;;;;3.15;70.35;100947.54;2217917;80;28884;-63
2021/04/04 00:22:20;;;;;;;21.35;11.53;;;;;;;3.18;70.41;100947.52;2014445;84;28003;-63
2021/04/04 00:25:22;;;;;;;23.80;13.65;;;;;;;3.23;70.36;100948.33;2038949;87;34057;-63
2021/04/04 00:28:24;;;;;;;27.87;13.68;;;;;;;3.24;70.38;100941.28;2051172;86;29179;-64
2021/04/04 00:31:27;;;;;;;22.77;11.57;;;;;;;3.26;70.45;100947.45;2051404;86;27810;-63
2021/04/04 00:34:29;;;;;;;21.85;10.35;;;;;;;3.28;70.37;100949.19;2051213;86;29937;-65
2021/04/04 00:37:32;;;;;;;18.10;9.43;;;;;;;3.28;70.32;100946.53;2051263;86;31368;-63
2021/04/04 00:40:36;;;;;;;19.32;9.98;;;;;;;3.29;70.33;100943.00;2168971;79;35409;-64
2021/04/04 00:43:38;;;;;;;22.67;9.28;;;;;;;3.29;70.29;100936.38;2239353;79;29148;-64
2021/04/04 00:46:41;;;;;;;15.05;8.53;;;;;;;3.27;70.39;100934.19;2239553;79;27717;-64
2021/04/04 00:49:43;;;;;;;18.55;9.20;;;;;;;3.29;70.34;100928.89;2239255;79;28661;-64
2021/04/04 00:52:46;;;;;;;16.95;9.35;;;;;;;3.31;70.33;100928.44;2239208;79;31614;-63
2021/04/04 00:55:48;;;;;;;16.50;9.65;;;;;;;3.32;70.27;100930.16;2239231;79;33121;-64
2021/04/04 00:58:51;;;;;;;18.50;9.78;;;;;;;3.32;70.23;100932.81;2239112;79;29165;-64
2021/04/04 01:01:53;;;;;;;17.02;9.08;;;;;;;3.33;70.20;100934.14;2239269;79;27713;-63
2021/04/04 01:04:58;;;;;;;17.32;9.60;;;;;;;3.32;70.12;100933.70;2239178;79;28834;-65
2021/04/04 01:07:59;;;;;;;15.08;9.25;;;;;;;3.30;70.10;100933.30;2239090;79;31144;-63
2021/04/04 01:11:02;;;;;;;17.12;9.08;;;;;;;3.27;70.02;100932.86;2239148;79;32780;-65
2021/04/04 01:14:15;;;;;;;18.23;8.75;;;;;;;3.23;70.01;100931.59;2239213;79;29992;-64
2021/04/04 01:17:21;;;;;;;17.37;8.80;;;;;;;3.21;70.01;100936.02;2210548;79;27758;-63
2021/04/04 01:20:30;;;;;;;15.88;8.63;;;;;;;3.16;70.03;100936.06;2238733;78;28854;-64
2021/04/04 01:24:12;;;;;;;14.55;8.18;;;;;;;3.11;70.02;100930.81;2236436;79;33415;-63
2021/04/04 01:27:39;;;;;;;17.10;8.90;;;;;;;3.04;70.00;100935.28;2236458;79;33830;-64
2021/04/04 01:30:43;;;;;;;17.02;8.53;;;;;;;2.96;70.14;100937.56;2236592;79;30041;-64
2021/04/04 01:33:47;;;;;;;17.30;8.63;;;;;;;2.92;70.21;100943.30;2236835;79;27675;-64
2021/04/04 01:36:52;;;;;;;17.90;9.10;;;;;;;2.91;70.26;100944.19;2236505;79;28824;-64
2021/04/04 01:39:57;;;;;;;23.25;9.88;;;;;;;2.89;70.23;100942.89;2236614;79;31133;-63
2021/04/04 01:43:02;;;;;;;18.40;9.88;;;;;;;2.87;70.30;100940.69;2236377;79;33115;-62
2021/04/04 01:46:05;;;;;;;19.13;9.63;;;;;;;2.87;70.26;100942.02;2236869;79;29160;-63
2021/04/04 01:49:07;;;;;;;19.45;9.25;;;;;;;2.86;70.34;100941.58;2236510;79;27686;-63
2021/04/04 01:52:11;;;;;;;12.60;7.87;;;;;;;2.85;70.29;100938.95;2236490;79;28811;-64
2021/04/04 01:55:14;;;;;;;13.00;7.53;;;;;;;2.84;70.37;100942.49;2236473;79;30611;-64
2021/04/04 01:58:16;;;;;;;17.37;8.20;;;;;;;2.82;70.40;100935.87;2236350;79;34618;-65
2021/04/04 02:01:19;;;;;;;17.02;8.95;;;;;;;2.79;70.38;100942.53;2236457;79;29585;-64
2021/04/04 02:04:22;;;;;;;18.10;8.55;;;;;;;2.73;70.51;100938.59;2236640;79;27677;-64
2021/04/04 02:07:25;;;;;;;19.15;8.80;;;;;;;2.69;70.53;100935.53;2236424;79;28794;-64
2021/04/04 02:10:28;;;;;;;15.43;8.65;;;;;;;2.63;70.58;100933.81;2236356;79;31137;-63
2021/04/04 02:13:31;;;;;;;17.20;8.18;;;;;;;2.60;70.70;100937.79;2211558;79;33112;-63
2021/04/04 02:16:36;;;;;;;15.55;8.70;;;;;;;2.59;70.76;100941.32;2236404;79;29152;-63
2021/04/04 02:19:39;;;;;;;18.75;10.08;;;;;;;2.60;70.83;100938.25;2236565;79;27611;-64
2021/04/04 02:22:41;;;;;;;14.20;9.35;;;;;;;2.61;70.96;100935.58;2238952;79;29696;-64
2021/04/04 02:25:43;;;;;;;15.03;8.63;;;;;;;2.62;70.96;100936.02;2217862;80;31166;-65
2021/04/04 02:28:46;;;;;;;15.83;8.90;;;;;;;2.62;71.00;100929.41;2229694;79;33181;-65
2021/04/04 02:32:03;;;;;;;16.17;9.48;;;;;;;2.63;71.03;100931.63;2201245;78;29125;-63
2021/04/04 02:35:07;;;;;;;16.05;8.78;;;;;;;2.62;71.00;100932.51;2151563;82;27689;-64
2021/04/04 02:38:19;;;;;;;14.23;8.73;;;;;;;2.60;71.00;100925.89;2151506;82;28828;-64
2021/04/04 02:41:22;;;;;;;16.85;8.58;;;;;;;2.58;71.06;100939.13;2132521;82;32017;-64
2021/04/04 02:44:27;;;;;;;16.45;9.00;;;;;;;2.52;71.02;100937.84;2151338;82;33596;-65
2021/04/04 02:47:38;;;;;;;15.32;8.50;;;;;;;2.49;71.11;100937.84;2151305;82;36749;-64
2021/04/04 02:50:41;;;;;;;11.57;7.28;;;;;;;2.48;71.17;100935.23;2146699;82;27653;-64
2021/04/04 02:53:47;;;;;;;14.13;7.40;;;;;;;2.47;71.22;100934.80;2151329;82;28802;-64
2021/04/04 02:56:50;;;;;;;14.03;8.05;;;;;;;2.48;71.20;100928.19;2151418;82;30573;-65
2021/04/04 02:59:56;;;;;;;18.85;8.90;;;;;;;2.46;71.16;100933.93;2151368;82;33118;-64
2021/04/04 03:02:59;;;;;;;15.45;8.65;;;;;;;2.47;71.23;100937.01;2151382;82;29176;-64
2021/04/04 03:06:07;;;;;;;15.20;7.53;;;;;;;2.45;71.24;100936.13;2131464;82;27630;-64
2021/04/04 03:09:11;;;;;;;14.60;7.87;;;;;;;2.44;71.23;100937.02;2151355;82;28944;-63
2021/04/04 03:12:15;;;;;;;16.20;7.83;;;;;;;2.41;71.26;100924.67;2151356;82;31148;-64
2021/04/04 03:15:18;;;;;;;12.80;8.08;;;;;;;2.40;71.22;100928.66;2151242;82;33124;-64
2021/04/04 03:18:21;;;;;;;13.58;7.47;;;;;;;2.35;71.17;100931.77;2151347;82;29590;-64
2021/04/04 03:21:24;;;;;;;14.33;8.48;;;;;;;2.31;71.18;100931.38;2151403;82;27679;-64
2021/04/04 03:24:26;;;;;;;19.35;9.98;;;;;;;2.24;71.07;100930.50;2151358;82;28888;-63
2021/04/04 03:27:29;;;;;;;16.50;7.97;;;;;;;2.19;71.15;100930.98;2151309;82;31342;-64
2021/04/04 03:30:35;;;;;;;14.03;7.62;;;;;;;2.15;71.20;100933.20;2151435;82;33073;-64
2021/04/04 03:33:38;;;;;;;18.85;8.83;;;;;;;2.10;71.23;100929.27;2169495;81;29178;-64
2021/04/04 03:36:41;;;;;;;18.15;10.58;;;;;;;2.11;71.40;100924.41;2178352;81;27601;-64
2021/04/04 03:39:43;;;;;;;22.95;12.20;;;;;;;2.11;71.55;100930.56;2178374;81;28821;-64
2021/04/04 03:42:46;;;;;;;20.75;11.93;;;;;;;2.12;71.74;100932.32;2178406;81;31142;-64
2021/04/04 03:45:54;;;;;;;26.40;11.73;;;;;;;2.15;71.88;100934.52;2178421;81;33287;-64
2021/04/04 03:48:57;;;;;;;31.82;15.10;;;;;;;2.17;71.92;100932.75;2178470;81;29232;-64
2021/04/04 03:52:00;;;;;;;29.92;15.20;;;;;;;2.16;71.94;100931.85;2178637;81;27919;-65
2021/04/04 03:55:04;;;;;;;37.15;14.60;;;;;;;2.16;72.05;100931.85;2178459;81;29453;-65
2021/04/04 03:58:07;;;;;;;34.38;15.68;;;;;;;2.16;72.16;100930.98;2178412;81;31151;-64
2021/04/04 04:01:11;;;;;;;27.27;14.73;;;;;;;2.13;72.13;100936.72;2178378;81;33152;-65
2021/04/04 04:04:15;;;;;;;24.67;13.33;;;;;;;2.14;72.25;100934.98;2178686;81;29242;-64
2021/04/04 04:07:19;;;;;;;27.20;14.20;;;;;;;2.13;72.29;100940.69;2178648;81;27653;-65
2021/04/04 04:10:23;;;;;;;19.50;11.25;;;;;;;2.18;72.32;100935.83;2178604;81;28760;-64
2021/04/04 04:13:27;;;;;;;29.90;13.93;;;;;;;2.23;72.43;100930.09;2178413;81;31229;-65
2021/04/04 04:16:36;;;;;;;26.07;14.73;;;;;;;2.26;72.38;100938.87;2178353;81;33128;-65
2021/04/04 04:19:38;;;;;;;32.55;14.23;;;;;;;2.26;72.30;100933.59;2178574;81;29162;-64
2021/04/04 04:22:41;;;;;;;42.25;15.68;;;;;;;2.27;72.21;100935.34;2178630;81;28146;-64
2021/04/04 04:25:43;;;;;;;46.42;19.25;;;;;;;2.24;72.18;100933.14;2178490;81;29027;-65
2021/04/04 04:28:46;;;;;;;41.40;17.25;;;;;;;2.22;72.26;100938.45;2178366;81;31129;-64
2021/04/04 04:31:55;;;;;;;29.92;16.15;;;;;;;2.20;72.40;100935.38;2178470;81;33097;-64
2021/04/04 04:34:58;;;;;;;28.65;14.65;;;;;;;2.22;72.48;100937.58;2151570;81;31479;-64
2021/04/04 04:38:01;;;;;;;26.35;15.58;;;;;;;2.22;72.51;100944.19;2151514;82;27674;-64
2021/04/04 04:41:04;;;;;;;27.95;13.90;;;;;;;2.22;72.44;100942.88;2132516;82;28823;-65
2021/04/04 04:44:08;;;;;;;34.67;15.68;;;;;;;2.24;72.61;100941.07;2151464;82;31225;-64
2021/04/04 04:47:14;;;;;;;26.07;14.85;;;;;;;2.28;72.65;100937.53;2151525;82;33229;-64
2021/04/04 04:50:16;;;;;;;34.50;15.40;;;;;;;2.31;72.67;100937.98;2151530;82;29150;-64
2021/04/04 04:53:18;;;;;;;28.10;14.98;;;;;;;2.35;72.63;100947.20;2151495;82;27690;-64
2021/04/04 04:56:21;;;;;;;38.78;22.17;;;;;;;2.36;72.56;100946.31;2151407;82;29240;-64
2021/04/04 04:59:23;;;;;;;51.25;23.65;;;;;;;2.38;72.64;100949.84;2151384;82;31088;-65
2021/04/04 05:02:25;;;;;;;30.43;18.55;;;;;;;2.37;72.62;100949.83;2151373;82;33116;-64
2021/04/04 05:05:28;;;;;;;33.33;16.20;;;;;;;2.40;72.66;100944.53;2151514;82;29236;-64
2021/04/04 05:08:33;;;;;;;29.60;17.30;;;;;;;2.42;72.59;100948.91;2151620;82;27626;-64
2021/04/04 05:11:41;;;;;;;25.70;14.50;;;;;;;2.45;72.60;100947.14;2151801;82;28869;-63
2021/04/04 05:14:43;;;;;;;24.40;12.82;;;;;;;2.46;72.50;100952.86;2151409;82;32120;-64
2021/04/04 05:17:46;;;;;;;20.70;13.40;;;;;;;2.49;72.57;100955.50;2151375;82;33535;-63
2021/04/04 05:20:48;;;;;;;29.57;15.23;;;;;;;2.54;72.61;100957.22;2132590;82;29291;-64
2021/04/04 05:24:00;;;;;;;27.65;15.53;;;;;;;2.61;72.63;100964.67;2151488;82;27707;-64
2021/04/04 05:27:03;;;;;;;28.07;14.78;;;;;;;2.70;72.66;100958.03;2151401;82;29759;-64
2021/04/04 05:30:10;;;;;;;44.70;14.75;;;;;;;2.80;72.71;100958.84;2151370;82;32188;-65
2021/04/04 05:33:13;;;;;;;33.30;16.42;;;;;;;2.82;72.42;100967.62;2151431;81;33117;-65
2021/04/04 05:36:15;;;;;;;36.83;17.45;;;;;;;2.85;72.52;100968.06;2151307;82;29156;-65
2021/04/04 05:39:23;;;;;;;35.52;15.88;;;;;;;2.89;72.43;100979.08;2151513;82;27680;-64
2021/04/04 05:42:26;;;;;;;31.23;15.05;;;;;;;2.93;72.51;100970.20;2151504;82;28762;-64
2021/04/04 05:45:39;;;;;;;29.37;14.05;;;;;;;2.96;72.16;100978.12;2151473;82;31149;-64
2021/04/04 05:49:11;;;;;;;27.50;15.50;;;;;;;2.91;71.85;100979.91;2151307;82;33811;-64
2021/04/04 05:52:33;;;;;;;38.10;15.90;;;;;;;2.91;72.05;100976.41;2151131;82;29241;-64
2021/04/04 05:56:05;;;;;;;29.82;15.48;;;;;;;2.89;71.97;100984.36;2151480;82;27687;-64
2021/04/04 05:59:14;;;;;;;50.15;17.82;;;;;;;2.87;71.96;100982.17;2151444;82;28771;-64
2021/04/04 06:02:46;;;;;;;47.53;22.42;;;;;;;2.96;72.20;100990.49;2151457;82;31218;-65
2021/04/04 06:06:15;;;;;;;39.10;20.82;;;;;;;3.02;72.31;100986.45;2090076;85;33143;-64
2021/04/04 06:09:41;;;;;;;54.30;22.90;;;;;;;3.06;72.22;100992.17;2090305;85;31410;-64
2021/04/04 06:13:22;;;;;;;32.75;18.73;;;;;;;3.16;72.32;100987.23;2090591;85;27660;-64
2021/04/04 06:17:01;;;;;;;81.47;40.75;;;;;;;3.26;72.27;100988.50;2090436;85;29083;-63
2021/04/04 06:20:40;;;;;;;67.78;32.38;;;;;;;3.38;72.12;100988.38;2090333;85;31157;-64
2021/04/04 06:24:16;;;;;;;29.05;17.57;;;;;;;3.52;72.01;100983.40;2089932;85;33326;-63
2021/04/04 06:27:43;;;;;;;30.48;17.75;;;;;;;3.61;71.76;100981.55;2090423;85;30098;-65
2021/04/04 06:31:00;;;;;;;40.75;20.70;;;;;;;3.73;71.84;100979.22;2090069;85;27715;-64
2021/04/04 06:34:09;;;;;;;84.30;28.57;;;;;;;3.86;71.69;100978.66;2090365;85;29170;-66
2021/04/04 06:37:32;;;;;;;52.33;23.77;;;;;;;4.01;71.51;100971.42;2343223;76;27619;-63
2021/04/04 06:40:48;;;;;;;48.87;24.35;;;;;;;3.99;71.35;100971.88;2303775;77;27580;-64
2021/04/04 06:44:19;;;;;;;37.25;21.27;;;;;;;4.11;71.53;100974.38;2303518;77;29121;-63
2021/04/04 06:47:42;;;;;;;26.87;16.65;;;;;;;4.17;71.34;100977.41;2303606;77;31537;-64
2021/04/04 06:50:50;;;;;;;26.60;15.98;;;;;;;4.23;71.21;100970.25;2303557;77;33160;-65
2021/04/04 06:54:06;;;;;;;28.73;16.95;;;;;;;4.28;71.03;100967.56;2303367;77;28606;-65
2021/04/04 06:57:20;;;;;;;;;;;;;;;4.39;71.31;100970.05;2306606;77;27646;-63
2021/04/04 07:00:27;;;;;;;24.05;15.35;;;;;;;4.55;71.22;100964.96;2303888;77;28577;-63
2021/04/04 07:03:38;;;;;;;29.48;16.55;;;;;;;4.70;71.11;100968.32;2303487;77;33467;-63
2021/04/04 07:07:19;;;;;;;25.72;14.65;;;;;;;4.93;70.80;100959.11;2257155;78;34409;-63
2021/04/04 07:11:14;;;;;;;32.37;17.90;;;;;;;5.34;70.63;100964.22;2343325;76;27705;-62
2021/04/04 07:14:59;;;;;;;34.65;21.07;;;;;;;5.59;69.93;100960.67;2303844;77;27735;-64
2021/04/04 07:18:22;;;;;;;31.70;18.87;;;;;;;5.93;69.66;100960.47;2277275;77;28820;-64
2021/04/04 07:21:52;;;;;;;21.93;14.83;;;;;;;6.06;69.27;100958.48;2303743;77;32095;-64
2021/04/04 07:25:27;;;;;;;26.33;17.87;;;;;;;6.18;69.29;100963.54;2303568;77;33014;-64
2021/04/04 07:28:44;;;;;;;32.10;19.77;;;;;;;6.32;69.12;100962.37;2303566;77;28539;-66
2021/04/04 07:32:05;;;;;;;24.90;15.90;;;;;;;6.43;68.63;100971.02;2303204;77;27709;-65
2021/04/04 07:35:16;;;;;;;24.23;13.83;;;;;;;6.47;68.22;100962.03;2303629;77;29663;-65
2021/04/04 07:38:39;;;;;;;25.08;15.48;;;;;;;6.68;68.22;100955.37;2303750;77;31128;-65
2021/04/04 07:42:19;;;;;;;19.60;12.63;;;;;;;6.96;68.13;100953.83;2303604;77;33130;-64
2021/04/04 07:46:00;;;;;;;17.70;12.47;;;;;;;7.62;67.61;100963.75;2303595;77;29816;-64
2021/04/04 07:49:35;;;;;;;19.25;12.07;;;;;;;8.22;67.25;100954.08;2303655;77;28241;-65
2021/04/04 07:53:02;;;;;;;18.52;11.90;;;;;;;8.49;65.67;100949.74;2303632;77;28859;-66
2021/04/04 07:56:21;;;;;;;17.10;12.10;;;;;;;8.88;65.89;100950.31;2303508;77;31553;-65
2021/04/04 07:59:50;;;;;;;25.45;15.03;;;;;;;9.03;64.80;100950.30;2303529;77;33168;-64
2021/04/04 08:03:16;;;;;;;34.53;20.17;;;;;;;9.11;64.27;100947.78;2303543;77;27900;-63
2021/04/04 08:06:18;;;;;;;36.05;21.45;;;;;;;9.28;63.67;100955.70;2303685;77;27705;-63
2021/04/04 08:09:41;;;;;;;20.12;12.63;;;;;;;9.41;63.83;100952.16;2303528;77;30086;-63
2021/04/04 08:12:50;;;;;;;15.28;10.53;;;;;;;9.48;63.36;100956.34;2297065;77;31146;-63
2021/04/04 08:16:38;;;;;;;15.28;10.32;;;;;;;9.57;62.99;100956.05;2303614;77;33831;-64
2021/04/04 08:19:42;;;;;;;19.45;11.73;;;;;;;9.62;62.68;100946.52;2303483;77;28854;-63
2021/04/04 08:22:49;;;;;;;12.50;9.25;;;;;;;9.73;62.30;100941.64;2300151;77;27520;-64
2021/04/04 08:26:04;;;;;;;18.85;12.18;;;;;;;9.99;62.23;100942.52;2302820;77;28690;-64
2021/04/04 08:29:10;;;;;;;11.12;8.38;;;;;;;10.48;62.20;100949.66;2272133;77;31113;-65
2021/04/04 08:32:23;;;;;;;12.80;9.15;;;;;;;10.91;61.06;100939.89;2302823;77;33103;-64
2021/04/04 08:35:30;;;;;;;16.17;8.63;;;;;;;11.25;60.74;100946.55;2302897;77;28558;-65
2021/04/04 08:38:42;;;;;;;14.53;8.98;;;;;;;11.32;59.58;100940.94;2303009;77;27682;-66
2021/04/04 08:41:45;;;;;;;11.60;8.03;;;;;;;11.34;59.79;100942.60;2302823;77;28820;-64
2021/04/04 08:45:22;;;;;;;12.18;8.00;;;;;;;11.26;58.56;100940.70;2302760;77;32032;-64
2021/04/04 08:48:27;;;;;;;17.27;9.00;;;;;;;11.17;58.37;100939.75;2302711;77;33100;-65
2021/04/04 08:51:33;;;;;;;12.10;5.78;;;;;;;11.06;57.61;100933.49;2302912;77;28860;-64
2021/04/04 08:54:35;;;;;;;13.30;5.87;;;;;;;10.83;57.61;100927.74;2302854;77;27726;-65
2021/04/04 08:57:46;;;;;;;11.05;6.10;;;;;;;10.78;58.05;100927.45;2302794;77;28808;-65
2021/04/04 09:00:51;;;;;;;7.78;4.37;;;;;;;10.81;57.14;100926.48;2302832;77;31117;-65
2021/04/04 09:04:00;;;;;;;8.05;5.08;;;;;;;10.84;56.09;100926.33;2302938;77;33960;-64
2021/04/04 09:07:04;;;;;;;11.25;5.05;;;;;;;10.81;56.02;100925.14;2302775;77;28855;-65
2021/04/04 09:10:10;;;;;;;5.83;3.37;;;;;;;10.55;55.44;100915.46;2305584;77;27638;-65
2021/04/04 09:13:15;;;;;;;8.78;4.33;;;;;;;10.55;55.44;100915.46;2306845;77;28679;-65
2021/04/04 09:16:17;;;;;;;;;;;;;;;10.58;56.18;100916.69;2309633;77;30900;-65
2021/04/04 09:19:36;;;;;;;8.60;3.70;;;;;;;10.94;56.55;100916.10;2306816;77;33095;-64
2021/04/04 09:22:39;;;;;;;5.55;3.62;;;;;;;11.28;55.63;100909.32;2305350;77;29054;-64
2021/04/04 09:25:52;;;;;;;9.35;5.35;;;;;;;11.51;54.80;100908.32;2281068;77;27698;-64
2021/04/04 09:28:55;;;;;;;9.05;4.40;;;;;;;11.45;53.84;100911.30;2306770;77;28809;-66
2021/04/04 09:31:59;;;;;;;7.87;3.40;;;;;;;11.32;54.04;100904.72;2306717;77;31182;-65
2021/04/04 09:35:04;;;;;;;6.45;2.83;;;;;;;11.30;53.89;100898.55;2280740;77;33169;-65
2021/04/04 09:38:17;;;;;;;5.05;3.10;;;;;;;11.26;53.26;100905.83;2307068;77;28845;-64
2021/04/04 09:41:19;;;;;;;5.55;2.85;;;;;;;11.16;53.07;100898.67;2281031;77;27638;-65
2021/04/04 09:44:35;;;;;;;6.87;3.90;;;;;;;11.06;52.80;100894.62;2306741;77;28801;-66
2021/04/04 09:47:37;;;;;;;8.53;4.08;;;;;;;10.98;52.56;100894.94;2306813;77;31112;-65
2021/04/04 09:50:40;;;;;;;2.60;2.05;;;;;;;11.04;52.79;100889.78;2306753;77;33107;-65
2021/04/04 09:53:48;;;;;;;7.05;2.77;;;;;;;11.15;52.48;100886.20;2306765;77;28850;-65
2021/04/04 09:56:58;;;;;;;5.05;2.40;;;;;;;11.37;52.88;100885.25;2306957;77;27613;-64
2021/04/04 10:00:00;;;;;;;3.08;2.20;;;;;;;11.53;51.87;100877.41;2306861;77;28800;-64
2021/04/04 10:03:18;;;;;;;4.60;1.70;;;;;;;11.51;50.94;100873.44;2306784;77;31128;-64
2021/04/04 10:06:20;;;;;;;6.85;3.62;;;;;;;11.47;49.46;100869.17;2226831;79;33238;-64
2021/04/04 10:09:38;;;;;;;8.43;4.12;;;;;;;11.38;50.31;100876.27;2225987;79;29073;-65
2021/04/04 10:12:58;;;;;;;7.25;4.08;;;;;;;11.37;50.66;100869.16;2342720;76;32297;-64
2021/04/04 10:16:03;;;;;;;9.15;4.62;;;;;;;11.27;50.95;100863.31;2306640;77;27651;-64
2021/04/04 10:19:09;;;;;;;11.38;5.65;;;;;;;11.17;51.11;100871.37;2306437;77;29023;-64
2021/04/04 10:22:11;;;;;;;8.78;5.78;;;;;;;11.10;50.82;100863.58;2305622;77;32088;-64
2021/04/04 10:25:15;;;;;;;22.07;9.00;;;;;;;11.14;50.57;100855.41;2306434;77;35491;-64
2021/04/04 10:28:18;;;;;;;8.20;3.50;;;;;;;11.23;49.93;100859.05;2306549;77;28542;-64
2021/04/04 10:31:23;;;;;;;6.65;2.92;;;;;;;11.32;49.96;100849.73;2306607;77;27721;-65
2021/04/04 10:34:26;;;;;;;16.30;9.70;;;;;;;11.45;49.06;100846.02;2306714;77;28779;-65
2021/04/04 10:37:29;;;;;;;32.55;10.30;;;;;;;11.63;49.84;100841.66;2273791;77;31142;-64
2021/04/04 10:40:47;;;;;;;17.55;5.40;;;;;;;11.90;49.96;100829.23;2306612;77;34039;-63
2021/04/04 10:43:50;;;;;;;10.32;4.08;;;;;;;12.15;49.40;100837.03;2306606;77;29325;-63
2021/04/04 10:46:53;;;;;;;23.25;8.10;;;;;;;12.30;48.91;100835.44;2306548;77;27609;-63
2021/04/04 10:49:56;;;;;;;5.92;2.40;;;;;;;12.39;48.51;100827.41;2306564;77;29764;-63
2021/04/04 10:52:59;;;;;;;4.92;2.87;;;;;;;12.43;47.92;100828.52;2306545;77;32367;-63
2021/04/04 10:56:03;;;;;;;7.10;2.92;;;;;;;12.49;47.84;100819.77;2306404;77;33202;-64
2021/04/04 10:59:06;;;;;;;4.12;2.33;;;;;;;12.51;47.10;100807.98;2306713;77;29753;-64
2021/04/04 11:02:09;;;;;;;5.65;3.80;;;;;;;12.52;46.76;100808.38;2273568;77;27513;-63
2021/04/04 11:05:12;;;;;;;8.50;4.53;;;;;;;12.46;47.40;100804.19;2306614;77;28808;-63
2021/04/04 11:08:16;;;;;;;4.70;2.52;;;;;;;12.43;47.72;100808.36;2306563;77;32127;-64
2021/04/04 11:11:19;;;;;;;5.47;3.08;;;;;;;12.20;46.88;100808.14;2306422;77;33111;-64
2021/04/04 11:14:23;;;;;;;3.87;2.37;;;;;;;11.97;46.34;100802.02;2306565;77;29598;-64
2021/04/04 11:17:26;;;;;;;7.90;3.02;;;;;;;11.84;47.21;100803.55;2306493;77;27600;-64
2021/04/04 11:20:28;;;;;;;7.33;3.20;;;;;;;11.70;46.86;100794.78;2306402;77;31122;-64
2021/04/04 11:23:31;;;;;;;7.28;3.50;;;;;;;11.55;46.49;100793.21;2305892;77;31133;-63
2021/04/04 11:26:37;;;;;;;8.05;4.20;;;;;;;11.48;47.18;100796.25;2305794;77;33179;-64
2021/04/04 11:29:44;;;;;;;4.17;2.13;;;;;;;11.45;47.59;100793.70;2306042;77;28123;-64
2021/04/04 11:32:48;;;;;;;6.50;2.87;;;;;;;11.49;46.66;100792.17;2305772;77;27630;-63
2021/04/04 11:36:08;;;;;;;4.97;3.25;;;;;;;11.46;46.73;100786.94;2305726;77;30389;-67
2021/04/04 11:39:11;;;;;;;4.35;2.00;;;;;;;11.56;46.61;100786.05;2305706;77;30058;-64
2021/04/04 11:42:21;;;;;;;5.15;2.45;;;;;;;11.61;46.25;100769.73;2305576;77;33091;-64
2021/04/04 11:45:37;;;;;;;7.85;3.30;;;;;;;11.77;46.32;100771.20;2305784;77;28850;-65
2021/04/04 11:48:39;;;;;;;4.77;2.43;;;;;;;11.94;45.77;100771.28;2306084;77;27625;-65
2021/04/04 11:51:41;;;;;;;3.67;2.08;;;;;;;12.04;46.05;100770.89;2305751;77;27997;-65
2021/04/04 11:54:49;;;;;;;4.58;2.22;;;;;;;12.11;45.93;100769.63;2305610;77;31542;-65
2021/04/04 11:57:52;;;;;;;4.03;2.05;;;;;;;12.12;45.37;100756.14;2305623;77;33971;-66
2021/04/04 12:00:56;;;;;;;4.17;2.52;;;;;;;12.17;45.05;100746.52;2305694;77;30150;-66
2021/04/04 12:04:17;;;;;;;4.62;2.37;;;;;;;12.19;44.29;100743.73;2305700;77;27640;-66
2021/04/04 12:07:20;;;;;;;4.65;2.10;;;;;;;12.18;44.83;100737.97;2305716;77;29715;-66
2021/04/04 12:10:35;;;;;;;5.00;2.05;;;;;;;12.20;45.27;100734.73;2305610;77;31141;-65
2021/04/04 12:13:38;;;;;;;5.17;2.12;;;;;;;12.18;44.26;100736.17;2310152;77;35432;-65
2021/04/04 12:16:48;;;;;;;6.25;2.27;;;;;;;12.02;43.65;100730.66;2310095;77;28851;-65
2021/04/04 12:19:51;;;;;;;2.87;1.90;;;;;;;11.83;43.70;100730.17;2310264;77;27764;-65
2021/04/04 12:23:14;;;;;;;4.90;2.95;;;;;;;11.64;44.28;100719.45;2310157;77;28772;-66
2021/04/04 12:26:19;;;;;;;3.42;1.90;;;;;;;11.60;44.78;100713.83;2198117;81;31609;-64
2021/04/04 12:29:21;;;;;;;6.08;3.30;;;;;;;11.61;44.78;100705.33;2198130;81;33341;-65
2021/04/04 12:32:32;;;;;;;5.62;2.87;;;;;;;11.65;44.66;100699.73;2198150;80;30213;-65
2021/04/04 12:35:37;;;;;;;4.37;3.30;;;;;;;11.71;45.07;100697.22;2198319;81;27670;-65
2021/04/04 12:38:39;;;;;;;;;;;;;;;11.82;44.99;100688.66;2200933;81;30032;-66
2021/04/04 12:41:43;;;;;;;6.35;3.42;;;;;;;11.93;44.85;100682.28;2142437;81;31073;-66
2021/04/04 12:44:48;;;;;;;4.17;3.07;;;;;;;11.93;44.75;100669.34;2198650;80;33178;-66
2021/04/04 12:47:52;;;;;;;4.20;2.80;;;;;;;11.91;44.71;100667.20;2198356;80;28863;-64
2021/04/04 12:51:00;;;;;;;5.60;3.30;;;;;;;11.84;44.69;100662.12;2198219;81;27667;-64
2021/04/04 12:54:08;;;;;;;7.17;3.47;;;;;;;11.74;44.14;100650.11;2198161;81;28037;-66
2021/04/04 12:57:12;;;;;;;4.47;2.75;;;;;;;11.73;43.96;100647.02;2114665;84;31364;-64
2021/04/04 13:00:24;;;;;;;4.60;2.60;;;;;;;11.70;43.68;100639.12;2116097;84;33106;-64
2021/04/04 13:03:32;;;;;;;4.60;2.37;;;;;;;11.75;43.17;100633.55;2116260;84;30496;-64
2021/04/04 13:06:46;;;;;;;3.27;2.22;;;;;;;11.77;42.56;100621.78;2252339;77;32284;-63
2021/04/04 13:09:50;;;;;;;2.90;1.98;;;;;;;11.75;42.78;100624.16;2217656;80;27666;-65
2021/04/04 13:12:53;;;;;;;4.33;2.37;;;;;;;11.69;42.39;100619.47;2217709;80;29024;-64
2021/04/04 13:15:59;;;;;;;4.55;3.10;;;;;;;11.56;41.70;100611.64;2217641;80;32038;-64
2021/04/04 13:19:02;;;;;;;3.27;2.30;;;;;;;11.46;42.18;100608.53;2217652;80;33108;-64
2021/04/04 13:22:05;;;;;;;3.83;2.65;;;;;;;11.39;41.67;100593.66;2217581;80;29388;-66
2021/04/04 13:25:11;;;;;;;6.10;4.05;;;;;;;11.30;41.65;100591.44;2217768;80;27680;-66
2021/04/04 13:28:30;;;;;;;8.18;3.05;;;;;;;11.17;41.85;100587.97;2217520;80;28811;-66
2021/04/04 13:31:34;;;;;;;4.53;3.25;;;;;;;11.09;41.28;100579.44;2217622;80;31141;-65
2021/04/04 13:34:43;;;;;;;4.72;3.12;;;;;;;10.99;41.56;100572.30;2217680;80;33117;-66
2021/04/04 13:37:46;;;;;;;3.87;3.05;;;;;;;10.93;41.69;100575.26;2217485;80;29808;-66
2021/04/04 13:40:49;;;;;;;7.37;4.10;;;;;;;10.85;42.21;100564.03;2217435;80;27652;-66
2021/04/04 13:43:56;;;;;;;4.65;2.90;;;;;;;10.81;42.57;100571.81;2187248;80;29761;-65
2021/04/04 13:47:02;;;;;;;5.03;3.17;;;;;;;10.72;41.97;100560.59;2217541;80;31332;-65
2021/04/04 13:50:17;;;;;;;6.78;4.33;;;;;;;10.62;42.16;100546.75;2217532;80;33108;-64
2021/04/04 13:53:27;;;;;;;5.75;3.00;;;;;;;10.57;41.75;100551.44;2217850;80;28853;-65
2021/04/04 13:56:47;;;;;;;4.90;2.60;;;;;;;10.52;42.09;100548.09;2217520;80;27749;-65
2021/04/04 13:59:52;;;;;;;6.30;3.33;;;;;;;10.49;41.89;100539.73;2217577;80;29843;-65
2021/04/04 14:03:00;;;;;;;5.15;2.52;;;;;;;10.45;41.78;100532.77;2216864;80;31193;-66
2021/04/04 14:06:12;;;;;;;3.87;2.15;;;;;;;10.39;41.40;100533.52;2193931;80;34007;-64
2021/04/04 14:09:14;;;;;;;3.58;2.55;;;;;;;10.33;42.13;100527.49;2225095;80;28853;-65
2021/04/04 14:12:18;;;;;;;4.83;2.17;;;;;;;10.34;42.22;100522.98;2225273;80;27728;-66
2021/04/04 14:15:21;;;;;;;3.83;2.60;;;;;;;10.32;42.12;100516.38;2198632;80;28767;-65
2021/04/04 14:18:29;;;;;;;7.28;3.92;;;;;;;10.32;42.50;100507.00;2224482;80;31145;-65
2021/04/04 14:21:32;;;;;;;5.75;3.37;;;;;;;10.39;42.17;100503.61;2224073;80;32987;-65
2021/04/04 14:24:35;;;;;;;5.92;2.90;;;;;;;10.42;42.42;100500.80;2224431;80;29734;-64
2021/04/04 14:27:38;;;;;;;3.10;2.35;;;;;;;10.43;42.70;100494.47;2224495;79;27671;-64
2021/04/04 14:30:41;;;;;;;5.53;3.25;;;;;;;10.49;42.53;100493.34;2224458;80;29747;-64
2021/04/04 14:33:44;;;;;;;4.80;2.90;;;;;;;10.50;42.27;100487.05;2224481;80;32019;-67